sensor_id;sensor_type;location;lat;lon;timestamp;pressure;altitude;pressure_sealevel;temperature;humidity
37132;BME280;23035;50.032;21.978;2023-02-18T00:04:20;65919.59;;;7.15;100.00
37132;BME280;23035;50.032;21.978;2023-02-18T00:09:25;65919.50;;;7.13;100.00
37132;BME280;23035;50.032;21.978;2023-02-18T00:14:29;65966.03;;;7.57;100.00
37132;BME280;23035;50.032;21.978;2023-02-18T00:19:35;66000.91;;;7.93;100.00
37132;BME280;23035;50.032;21.978;2023-02-18T00:24:39;65988.94;;;7.76;100.00
37132;BME280;23035;50.032;21.978;2023-02-18T00:29:43;66041.41;;;8.26;100.00
37132;BME280;23035;50.032;21.978;2023-02-18T00:34:49;66003.84;;;7.88;100.00
37132;BME280;23035;50.032;21.978;2023-02-18T00:39:54;66080.50;;;8.63;100.00
37132;BME280;23035;50.032;21.978;2023-02-18T00:44:58;66078.03;;;8.66;100.00
37132;BME280;23035;50.032;21.978;2023-02-18T00:50:05;66134.34;;;9.22;100.00
37132;BME280;23035;50.032;21.978;2023-02-18T00:55:09;66101.22;;;8.93;100.00
37132;BME280;23035;50.032;21.978;2023-02-18T01:00:14;66156.13;;;9.38;100.00
37132;BME280;23035;50.032;21.978;2023-02-18T01:05:20;66162.03;;;9.43;100.00
37132;BME280;23035;50.032;21.978;2023-02-18T01:10:24;66165.88;;;9.49;100.00
37132;BME280;23035;50.032;21.978;2023-02-18T01:15:30;66188.66;;;9.64;100.00
37132;BME280;23035;50.032;21.978;2023-02-18T01:20:37;66181.94;;;9.65;100.00
37132;BME280;23035;50.032;21.978;2023-02-18T01:25:42;66222.59;;;10.01;100.00
37132;BME280;23035;50.032;21.978;2023-02-18T01:30:47;66196.50;;;9.81;100.00
37132;BME280;23035;50.032;21.978;2023-02-18T01:35:55;66153.63;;;9.40;100.00
37132;BME280;23035;50.032;21.978;2023-02-18T01:40:59;66128.19;;;9.09;100.00
37132;BME280;23035;50.032;21.978;2023-02-18T01:46:07;66163.66;;;9.45;100.00
37132;BME280;23035;50.032;21.978;2023-02-18T01:51:19;66162.66;;;9.46;100.00
37132;BME280;23035;50.032;21.978;2023-02-18T01:56:27;66200.16;;;9.82;100.00
37132;BME280;23035;50.032;21.978;2023-02-18T02:01:32;66172.91;;;9.59;100.00
37132;BME280;23035;50.032;21.978;2023-02-18T02:06:39;66196.41;;;9.78;100.00
37132;BME280;23035;50.032;21.978;2023-02-18T02:12:09;66166.84;;;9.48;100.00
37132;BME280;23035;50.032;21.978;2023-02-18T02:17:28;66141.75;;;9.27;100.00
37132;BME280;23035;50.032;21.978;2023-02-18T02:29:08;66107.38;;;8.91;100.00
37132;BME280;23035;50.032;21.978;2023-02-18T02:34:47;66089.81;;;8.77;100.00
37132;BME280;23035;50.032;21.978;2023-02-18T02:40:06;66095.06;;;8.80;100.00
37132;BME280;23035;50.032;21.978;2023-02-18T02:45:19;66080.63;;;8.66;100.00
37132;BME280;23035;50.032;21.978;2023-02-18T02:50:34;66063.03;;;8.52;100.00
37132;BME280;23035;50.032;21.978;2023-02-18T02:55:43;66059.81;;;8.49;100.00
37132;BME280;23035;50.032;21.978;2023-02-18T03:00:59;66054.44;;;8.44;100.00
37132;BME280;23035;50.032;21.978;2023-02-18T03:06:26;66032.03;;;8.25;100.00
37132;BME280;23035;50.032;21.978;2023-02-18T03:11:43;66051.25;;;8.41;100.00
37132;BME280;23035;50.032;21.978;2023-02-18T03:16:57;66036.69;;;8.24;100.00
37132;BME280;23035;50.032;21.978;2023-02-18T03:22:06;66044.09;;;8.29;100.00
37132;BME280;23035;50.032;21.978;2023-02-18T03:27:15;66020.19;;;8.11;100.00
37132;BME280;23035;50.032;21.978;2023-02-18T03:32:23;65993.41;;;7.86;100.00
37132;BME280;23035;50.032;21.978;2023-02-18T03:37:31;66001.88;;;7.91;100.00
37132;BME280;23035;50.032;21.978;2023-02-18T03:42:36;66002.44;;;7.92;100.00
37132;BME280;23035;50.032;21.978;2023-02-18T03:47:42;65981.19;;;7.76;100.00
37132;BME280;23035;50.032;21.978;2023-02-18T03:52:51;65966.13;;;7.60;100.00
37132;BME280;23035;50.032;21.978;2023-02-18T03:57:55;65967.13;;;7.58;100.00
37132;BME280;23035;50.032;21.978;2023-02-18T04:03:01;65964.88;;;7.54;100.00
37132;BME280;23035;50.032;21.978;2023-02-18T04:08:08;65936.25;;;7.34;100.00
37132;BME280;23035;50.032;21.978;2023-02-18T04:13:13;65936.09;;;7.29;100.00
37132;BME280;23035;50.032;21.978;2023-02-18T04:18:18;65911.75;;;7.13;100.00
37132;BME280;23035;50.032;21.978;2023-02-18T04:23:24;65915.31;;;7.11;100.00
37132;BME280;23035;50.032;21.978;2023-02-18T04:28:28;65922.81;;;7.18;100.00
37132;BME280;23035;50.032;21.978;2023-02-18T04:33:32;65899.72;;;6.94;100.00
37132;BME280;23035;50.032;21.978;2023-02-18T04:38:38;65915.75;;;7.09;100.00
37132;BME280;23035;50.032;21.978;2023-02-18T04:43:43;65897.75;;;6.97;100.00
37132;BME280;23035;50.032;21.978;2023-02-18T04:48:48;65900.31;;;6.97;100.00
37132;BME280;23035;50.032;21.978;2023-02-18T04:53:53;65917.38;;;7.11;100.00
37132;BME280;23035;50.032;21.978;2023-02-18T04:58:58;65887.94;;;6.83;100.00
37132;BME280;23035;50.032;21.978;2023-02-18T05:04:02;65890.09;;;6.85;100.00
37132;BME280;23035;50.032;21.978;2023-02-18T05:09:09;65885.81;;;6.81;100.00
37132;BME280;23035;50.032;21.978;2023-02-18T05:14:14;65864.97;;;6.61;100.00
37132;BME280;23035;50.032;21.978;2023-02-18T05:19:18;65862.28;;;6.58;100.00
37132;BME280;23035;50.032;21.978;2023-02-18T05:24:24;65874.13;;;6.72;100.00
37132;BME280;23035;50.032;21.978;2023-02-18T05:29:28;65858.00;;;6.54;100.00
37132;BME280;23035;50.032;21.978;2023-02-18T05:34:32;65855.34;;;6.52;100.00
37132;BME280;23035;50.032;21.978;2023-02-18T05:39:38;65844.19;;;6.44;100.00
37132;BME280;23035;50.032;21.978;2023-02-18T05:44:43;65848.38;;;6.45;100.00
37132;BME280;23035;50.032;21.978;2023-02-18T05:49:48;65836.72;;;6.37;100.00
37132;BME280;23035;50.032;21.978;2023-02-18T05:54:54;65844.66;;;6.42;100.00
37132;BME280;23035;50.032;21.978;2023-02-18T05:59:58;65842.50;;;6.40;100.00
37132;BME280;23035;50.032;21.978;2023-02-18T06:05:03;65829.78;;;6.30;100.00
37132;BME280;23035;50.032;21.978;2023-02-18T06:10:10;65833.31;;;6.28;100.00
37132;BME280;23035;50.032;21.978;2023-02-18T06:15:14;65831.28;;;6.29;100.00
37132;BME280;23035;50.032;21.978;2023-02-18T06:20:19;65848.47;;;6.48;100.00
37132;BME280;23035;50.032;21.978;2023-02-18T06:25:24;65861.31;;;6.60;100.00
37132;BME280;23035;50.032;21.978;2023-02-18T06:30:28;65875.75;;;6.74;100.00
37132;BME280;23035;50.032;21.978;2023-02-18T06:35:33;65891.59;;;6.84;98.49
37132;BME280;23035;50.032;21.978;2023-02-18T06:40:39;65882.59;;;6.78;100.00
37132;BME280;23035;50.032;21.978;2023-02-18T06:45:43;65879.38;;;6.75;100.00
37132;BME280;23035;50.032;21.978;2023-02-18T06:50:48;65895.00;;;6.92;100.00
37132;BME280;23035;50.032;21.978;2023-02-18T06:55:54;65922.16;;;7.15;100.00
37132;BME280;23035;50.032;21.978;2023-02-18T07:00:58;65933.06;;;7.31;100.00
37132;BME280;23035;50.032;21.978;2023-02-18T07:06:03;65915.41;;;7.14;100.00
37132;BME280;23035;50.032;21.978;2023-02-18T07:11:09;65915.41;;;7.14;100.00
37132;BME280;23035;50.032;21.978;2023-02-18T07:16:14;65928.69;;;7.24;99.53
37132;BME280;23035;50.032;21.978;2023-02-18T07:21:18;65930.72;;;7.24;94.81
37132;BME280;23035;50.032;21.978;2023-02-18T07:26:24;65939.19;;;7.29;93.48
37132;BME280;23035;50.032;21.978;2023-02-18T07:31:28;65921.72;;;7.17;91.59
37132;BME280;23035;50.032;21.978;2023-02-18T07:36:33;65928.06;;;7.21;92.56
37132;BME280;23035;50.032;21.978;2023-02-18T07:41:42;65931.34;;;7.27;91.23
37132;BME280;23035;50.032;21.978;2023-02-18T07:46:50;65924.41;;;7.20;91.66
37132;BME280;23035;50.032;21.978;2023-02-18T07:51:55;65916.38;;;7.12;88.66
37132;BME280;23035;50.032;21.978;2023-02-18T07:57:01;65935.03;;;7.28;89.14
37132;BME280;23035;50.032;21.978;2023-02-18T08:02:05;65928.50;;;7.19;86.23
37132;BME280;23035;50.032;21.978;2023-02-18T08:07:12;65907.81;;;7.04;83.38
37132;BME280;23035;50.032;21.978;2023-02-18T08:12:18;65928.16;;;7.24;84.60
37132;BME280;23035;50.032;21.978;2023-02-18T08:17:23;65902.66;;;7.04;84.39
37132;BME280;23035;50.032;21.978;2023-02-18T08:22:27;65873.69;;;6.74;85.07
37132;BME280;23035;50.032;21.978;2023-02-18T08:27:33;65868.25;;;6.67;87.31
37132;BME280;23035;50.032;21.978;2023-02-18T08:32:38;65868.25;;;6.67;86.81
37132;BME280;23035;50.032;21.978;2023-02-18T08:37:42;65872.00;;;6.70;83.91
37132;BME280;23035;50.032;21.978;2023-02-18T08:42:57;65901.13;;;6.90;84.37
37132;BME280;23035;50.032;21.978;2023-02-18T08:48:02;65912.09;;;7.08;83.25
37132;BME280;23035;50.032;21.978;2023-02-18T08:53:22;65911.03;;;7.07;84.08
37132;BME280;23035;50.032;21.978;2023-02-18T08:58:27;65916.19;;;7.07;83.96
37132;BME280;23035;50.032;21.978;2023-02-18T09:03:34;65901.84;;;6.96;84.19
37132;BME280;23035;50.032;21.978;2023-02-18T09:08:38;65909.25;;;7.01;83.70
37132;BME280;23035;50.032;21.978;2023-02-18T09:13:44;65892.75;;;6.87;83.48
37132;BME280;23035;50.032;21.978;2023-02-18T09:18:49;65924.94;;;7.21;81.35
37132;BME280;23035;50.032;21.978;2023-02-18T09:23:53;65942.50;;;7.35;81.06
37132;BME280;23035;50.032;21.978;2023-02-18T09:28:59;65924.50;;;7.23;79.74
37132;BME280;23035;50.032;21.978;2023-02-18T09:34:04;65933.94;;;7.27;80.08
37132;BME280;23035;50.032;21.978;2023-02-18T09:39:08;65964.53;;;7.58;78.48
37132;BME280;23035;50.032;21.978;2023-02-18T09:44:17;65959.72;;;7.54;76.34
37132;BME280;23035;50.032;21.978;2023-02-18T09:49:26;65933.94;;;7.27;77.07
37132;BME280;23035;50.032;21.978;2023-02-18T09:54:31;65913.59;;;7.07;76.26
37132;BME280;23035;50.032;21.978;2023-02-18T09:59:37;65942.16;;;7.39;78.33
37132;BME280;23035;50.032;21.978;2023-02-18T10:04:43;65974.59;;;7.65;75.30
37132;BME280;23035;50.032;21.978;2023-02-18T10:09:53;65968.34;;;7.64;71.67
37132;BME280;23035;50.032;21.978;2023-02-18T10:15:00;65979.59;;;7.75;72.91
37132;BME280;23035;50.032;21.978;2023-02-18T10:20:06;66010.47;;;7.99;72.08
37132;BME280;23035;50.032;21.978;2023-02-18T10:25:16;65988.06;;;7.81;69.41
37132;BME280;23035;50.032;21.978;2023-02-18T10:30:27;66041.50;;;8.29;69.55
37132;BME280;23035;50.032;21.978;2023-02-18T10:35:39;66080.78;;;8.71;66.75
37132;BME280;23035;50.032;21.978;2023-02-18T10:40:55;66084.88;;;8.70;63.33
37132;BME280;23035;50.032;21.978;2023-02-18T10:46:08;66109.63;;;8.96;63.86
37132;BME280;23035;50.032;21.978;2023-02-18T10:51:21;66075.44;;;8.66;65.52
37132;BME280;23035;50.032;21.978;2023-02-18T10:56:34;66046.00;;;8.38;65.48
37132;BME280;23035;50.032;21.978;2023-02-18T11:01:42;66030.97;;;8.24;63.84
37132;BME280;23035;50.032;21.978;2023-02-18T11:06:48;66061.34;;;8.48;63.33
37132;BME280;23035;50.032;21.978;2023-02-18T11:12:00;66051.16;;;8.38;63.33
37132;BME280;23035;50.032;21.978;2023-02-18T11:17:21;66019.66;;;8.11;62.22
37132;BME280;23035;50.032;21.978;2023-02-18T11:22:31;66016.88;;;8.05;61.58
37132;BME280;23035;50.032;21.978;2023-02-18T11:27:41;66010.00;;;8.01;61.36
37132;BME280;23035;50.032;21.978;2023-02-18T11:32:50;66006.53;;;7.91;61.88
37132;BME280;23035;50.032;21.978;2023-02-18T11:38:01;66022.22;;;8.11;62.07
37132;BME280;23035;50.032;21.978;2023-02-18T11:43:11;66007.34;;;7.99;63.14
37132;BME280;23035;50.032;21.978;2023-02-18T11:48:22;66024.44;;;8.15;62.28
37132;BME280;23035;50.032;21.978;2023-02-18T11:53:29;66046.97;;;8.37;63.11
37132;BME280;23035;50.032;21.978;2023-02-18T11:58:37;66052.31;;;8.42;63.23
37132;BME280;23035;50.032;21.978;2023-02-18T12:03:49;66074.19;;;8.60;62.66
37132;BME280;23035;50.032;21.978;2023-02-18T12:08:58;66033.38;;;8.19;60.95
37132;BME280;23035;50.032;21.978;2023-02-18T12:14:08;66033.91;;;8.19;62.46
37132;BME280;23035;50.032;21.978;2023-02-18T12:19:36;66029.38;;;8.22;61.45
37132;BME280;23035;50.032;21.978;2023-02-18T12:24:59;66043.09;;;8.30;61.67
37132;BME280;23035;50.032;21.978;2023-02-18T12:30:37;66046.97;;;8.37;60.89
37132;BME280;23035;50.032;21.978;2023-02-18T12:35:56;66062.56;;;8.54;61.79
37132;BME280;23035;50.032;21.978;2023-02-18T12:41:16;66071.06;;;8.59;62.16
37132;BME280;23035;50.032;21.978;2023-02-18T12:46:45;66086.50;;;8.72;63.08
37132;BME280;23035;50.032;21.978;2023-02-18T12:51:59;66057.16;;;8.46;63.87
37132;BME280;23035;50.032;21.978;2023-02-18T12:57:21;66054.97;;;8.44;65.39
37132;BME280;23035;50.032;21.978;2023-02-18T13:02:45;66054.38;;;8.41;67.74
37132;BME280;23035;50.032;21.978;2023-02-18T13:08:03;66058.09;;;8.45;69.74
37132;BME280;23035;50.032;21.978;2023-02-18T13:13:12;66043.19;;;8.33;71.59
37132;BME280;23035;50.032;21.978;2023-02-18T13:18:22;66026.50;;;8.15;73.15
37132;BME280;23035;50.032;21.978;2023-02-18T13:23:31;66010.53;;;8.02;77.59
37132;BME280;23035;50.032;21.978;2023-02-18T13:28:42;65989.75;;;7.85;82.23
37132;BME280;23035;50.032;21.978;2023-02-18T13:33:55;65951.69;;;7.46;86.03
37132;BME280;23035;50.032;21.978;2023-02-18T13:39:05;65938.22;;;7.31;97.41
37132;BME280;23035;50.032;21.978;2023-02-18T13:49:53;65869.75;;;6.66;100.00
37132;BME280;23035;50.032;21.978;2023-02-18T13:54:59;65865.59;;;6.64;100.00
37132;BME280;23035;50.032;21.978;2023-02-18T14:00:04;65874.66;;;6.73;100.00
37132;BME280;23035;50.032;21.978;2023-02-18T14:05:20;65901.84;;;6.96;100.00
37132;BME280;23035;50.032;21.978;2023-02-18T14:10:31;65934.66;;;7.32;100.00
37132;BME280;23035;50.032;21.978;2023-02-18T14:15:59;65920.84;;;7.22;100.00
37132;BME280;23035;50.032;21.978;2023-02-18T14:21:18;65909.88;;;7.04;100.00
37132;BME280;23035;50.032;21.978;2023-02-18T14:26:28;65890.69;;;6.88;100.00
37132;BME280;23035;50.032;21.978;2023-02-18T14:31:47;65887.50;;;6.85;100.00
37132;BME280;23035;50.032;21.978;2023-02-18T14:36:59;65876.19;;;6.72;100.00
37132;BME280;23035;50.032;21.978;2023-02-18T14:42:15;65878.31;;;6.74;100.00
37132;BME280;23035;50.032;21.978;2023-02-18T14:47:28;65851.69;;;6.51;100.00
37132;BME280;23035;50.032;21.978;2023-02-18T14:52:42;65853.53;;;6.45;100.00
37132;BME280;23035;50.032;21.978;2023-02-18T14:57:51;65843.66;;;6.43;100.00
37132;BME280;23035;50.032;21.978;2023-02-18T15:03:00;65818.66;;;6.22;100.00
37132;BME280;23035;50.032;21.978;2023-02-18T15:08:09;65816.31;;;6.15;100.00
37132;BME280;23035;50.032;21.978;2023-02-18T15:13:21;65827.81;;;6.33;100.00
37132;BME280;23035;50.032;21.978;2023-02-18T15:18:32;65840.47;;;6.40;100.00
37132;BME280;23035;50.032;21.978;2023-02-18T15:23:39;65844.72;;;6.44;100.00
37132;BME280;23035;50.032;21.978;2023-02-18T15:28:54;65840.34;;;6.38;100.00
37132;BME280;23035;50.032;21.978;2023-02-18T15:34:01;65848.47;;;6.48;100.00
37132;BME280;23035;50.032;21.978;2023-02-18T15:39:07;65857.38;;;6.51;100.00
37132;BME280;23035;50.032;21.978;2023-02-18T15:44:19;65850.19;;;6.52;100.00
37132;BME280;23035;50.032;21.978;2023-02-18T15:49:25;65858.00;;;6.54;100.00
37132;BME280;23035;50.032;21.978;2023-02-18T15:54:30;65859.06;;;6.55;100.00
37132;BME280;23035;50.032;21.978;2023-02-18T15:59:54;65847.94;;;6.47;100.00
37132;BME280;23035;50.032;21.978;2023-02-18T16:05:00;65830.19;;;6.28;100.00
37132;BME280;23035;50.032;21.978;2023-02-18T16:10:14;65830.19;;;6.28;100.00
37132;BME280;23035;50.032;21.978;2023-02-18T16:15:25;65836.63;;;6.34;100.00
37132;BME280;23035;50.032;21.978;2023-02-18T16:20:31;65817.56;;;6.21;100.00
37132;BME280;23035;50.032;21.978;2023-02-18T16:25:42;65831.72;;;6.27;100.00
37132;BME280;23035;50.032;21.978;2023-02-18T16:30:48;65800.38;;;6.02;100.00
37132;BME280;23035;50.032;21.978;2023-02-18T16:35:52;65761.88;;;5.65;100.00
37132;BME280;23035;50.032;21.978;2023-02-18T16:40:59;65746.28;;;5.48;100.00
37132;BME280;23035;50.032;21.978;2023-02-18T16:46:13;65725.03;;;5.30;100.00
37132;BME280;23035;50.032;21.978;2023-02-18T16:51:22;65716.38;;;5.19;100.00
37132;BME280;23035;50.032;21.978;2023-02-18T16:56:30;65793.88;;;5.93;100.00
37132;BME280;23035;50.032;21.978;2023-02-18T17:01:39;65750.22;;;5.57;100.00
37132;BME280;23035;50.032;21.978;2023-02-18T17:06:46;65751.13;;;5.53;100.00
37132;BME280;23035;50.032;21.978;2023-02-18T17:11:52;65785.31;;;5.85;100.00
37132;BME280;23035;50.032;21.978;2023-02-18T17:16:59;65780.59;;;5.83;100.00
37132;BME280;23035;50.032;21.978;2023-02-18T17:22:05;65775.59;;;5.73;100.00
37132;BME280;23035;50.032;21.978;2023-02-18T17:27:10;65734.84;;;5.44;100.00
37132;BME280;23035;50.032;21.978;2023-02-18T17:32:16;65737.84;;;5.42;100.00
37132;BME280;23035;50.032;21.978;2023-02-18T17:37:20;65731.25;;;5.31;100.00
37132;BME280;23035;50.032;21.978;2023-02-18T17:42:25;65722.38;;;5.28;100.00
37132;BME280;23035;50.032;21.978;2023-02-18T17:47:31;65713.72;;;5.17;100.00
37132;BME280;23035;50.032;21.978;2023-02-18T17:52:35;65706.78;;;5.10;100.00
37132;BME280;23035;50.032;21.978;2023-02-18T17:57:40;65700.38;;;5.04;100.00
37132;BME280;23035;50.032;21.978;2023-02-18T18:02:48;65709.34;;;5.10;100.00
37132;BME280;23035;50.032;21.978;2023-02-18T18:07:53;65732.06;;;5.39;100.00
37132;BME280;23035;50.032;21.978;2023-02-18T18:12:59;65742.03;;;5.44;100.00
37132;BME280;23035;50.032;21.978;2023-02-18T18:18:05;65771.94;;;5.72;100.00
37132;BME280;23035;50.032;21.978;2023-02-18T18:23:11;65772.25;;;5.80;100.00
37132;BME280;23035;50.032;21.978;2023-02-18T18:28:17;65800.28;;;5.99;100.00
37132;BME280;23035;50.032;21.978;2023-02-18T18:33:25;65772.03;;;5.75;100.00
37132;BME280;23035;50.032;21.978;2023-02-18T18:38:31;65804.47;;;6.01;100.00
37132;BME280;23035;50.032;21.978;2023-02-18T18:43:35;65868.78;;;6.67;100.00
37132;BME280;23035;50.032;21.978;2023-02-18T18:48:43;65916.19;;;7.07;100.00
37132;BME280;23035;50.032;21.978;2023-02-18T18:53:48;65933.31;;;7.24;100.00
37132;BME280;23035;50.032;21.978;2023-02-18T18:58:52;65938.66;;;7.29;100.00
37132;BME280;23035;50.032;21.978;2023-02-18T19:03:58;65930.19;;;7.23;100.00
37132;BME280;23035;50.032;21.978;2023-02-18T19:09:03;65920.22;;;7.18;100.00
37132;BME280;23035;50.032;21.978;2023-02-18T19:14:08;65887.41;;;6.82;100.00
37132;BME280;23035;50.032;21.978;2023-02-18T19:19:16;65881.00;;;6.76;100.00
37132;BME280;23035;50.032;21.978;2023-02-18T19:24:22;65886.88;;;6.82;100.00
37132;BME280;23035;50.032;21.978;2023-02-18T19:29:27;65872.44;;;6.68;100.00
37132;BME280;23035;50.032;21.978;2023-02-18T19:34:34;65869.97;;;6.71;100.00
37132;BME280;23035;50.032;21.978;2023-02-18T19:39:38;65872.53;;;6.71;100.00
37132;BME280;23035;50.032;21.978;2023-02-18T19:44:43;65893.28;;;6.88;100.00
37132;BME280;23035;50.032;21.978;2023-02-18T19:49:49;65905.69;;;7.02;100.00
37132;BME280;23035;50.032;21.978;2023-02-18T19:54:54;65914.34;;;7.13;100.00
37132;BME280;23035;50.032;21.978;2023-02-18T19:59:59;65924.31;;;7.17;100.00
37132;BME280;23035;50.032;21.978;2023-02-18T20:05:16;65940.97;;;7.36;100.00
37132;BME280;23035;50.032;21.978;2023-02-18T20:10:21;65934.03;;;7.29;100.00
37132;BME280;23035;50.032;21.978;2023-02-18T20:15:27;65946.78;;;7.39;100.00
37132;BME280;23035;50.032;21.978;2023-02-18T20:20:33;65953.38;;;7.50;100.00
37132;BME280;23035;50.032;21.978;2023-02-18T20:25:37;65972.38;;;7.61;100.00
37132;BME280;23035;50.032;21.978;2023-02-18T20:30:42;65970.59;;;7.69;100.00
37132;BME280;23035;50.032;21.978;2023-02-18T20:35:55;65958.63;;;7.53;100.00
37132;BME280;23035;50.032;21.978;2023-02-18T20:41:02;65976.63;;;7.65;100.00
37132;BME280;23035;50.032;21.978;2023-02-18T20:46:11;65961.66;;;7.51;100.00
37132;BME280;23035;50.032;21.978;2023-02-18T20:51:19;65903.88;;;6.96;100.00
37132;BME280;23035;50.032;21.978;2023-02-18T20:56:25;65838.66;;;6.33;100.00
37132;BME280;23035;50.032;21.978;2023-02-18T21:01:30;65814.28;;;6.15;100.00
37132;BME280;23035;50.032;21.978;2023-02-18T21:06:36;65787.88;;;5.85;100.00
37132;BME280;23035;50.032;21.978;2023-02-18T21:11:47;65770.78;;;5.69;100.00
37132;BME280;23035;50.032;21.978;2023-02-18T21:16:52;65771.84;;;5.70;100.00
37132;BME280;23035;50.032;21.978;2023-02-18T21:21:58;65812.66;;;6.14;100.00
37132;BME280;23035;50.032;21.978;2023-02-18T21:27:03;65776.22;;;5.76;100.00
37132;BME280;23035;50.032;21.978;2023-02-18T21:32:07;65768.19;;;5.69;100.00
37132;BME280;23035;50.032;21.978;2023-02-18T21:37:13;65767.56;;;5.66;100.00
37132;BME280;23035;50.032;21.978;2023-02-18T21:42:17;65763.94;;;5.65;100.00
37132;BME280;23035;50.032;21.978;2023-02-18T21:47:22;65756.44;;;5.58;100.00
37132;BME280;23035;50.032;21.978;2023-02-18T21:52:28;65765.00;;;5.66;100.00
37132;BME280;23035;50.032;21.978;2023-02-18T21:57:34;65753.78;;;5.55;100.00
37132;BME280;23035;50.032;21.978;2023-02-18T22:02:38;65766.16;;;5.69;100.00
37132;BME280;23035;50.032;21.978;2023-02-18T22:07:44;65767.88;;;5.73;100.00
37132;BME280;23035;50.032;21.978;2023-02-18T22:12:49;65768.19;;;5.69;100.00
37132;BME280;23035;50.032;21.978;2023-02-18T22:17:53;65784.22;;;5.84;100.00
37132;BME280;23035;50.032;21.978;2023-02-18T22:22:59;65788.09;;;5.90;100.00
37132;BME280;23035;50.032;21.978;2023-02-18T22:28:06;65778.25;;;5.76;100.00
37132;BME280;23035;50.032;21.978;2023-02-18T22:33:11;65774.53;;;5.72;100.00
37132;BME280;23035;50.032;21.978;2023-02-18T22:38:17;65773.09;;;5.76;100.00
37132;BME280;23035;50.032;21.978;2023-02-18T22:43:21;65763.50;;;5.67;100.00
37132;BME280;23035;50.032;21.978;2023-02-18T22:48:26;65759.13;;;5.60;100.00
37132;BME280;23035;50.032;21.978;2023-02-18T22:53:32;65754.13;;;5.51;100.00
37132;BME280;23035;50.032;21.978;2023-02-18T22:58:37;65755.38;;;5.57;100.00
37132;BME280;23035;50.032;21.978;2023-02-18T23:03:42;65738.94;;;5.43;100.00
37132;BME280;23035;50.032;21.978;2023-02-18T23:08:48;65747.28;;;5.46;100.00
37132;BME280;23035;50.032;21.978;2023-02-18T23:13:54;65755.81;;;5.55;100.00
37132;BME280;23035;50.032;21.978;2023-02-18T23:19:26;65774.63;;;5.75;100.00
37132;BME280;23035;50.032;21.978;2023-02-18T23:24:33;65736.78;;;5.41;100.00
37132;BME280;23035;50.032;21.978;2023-02-18T23:29:38;65744.25;;;5.48;100.00
37132;BME280;23035;50.032;21.978;2023-02-18T23:34:43;65748.53;;;5.53;100.00
37132;BME280;23035;50.032;21.978;2023-02-18T23:39:50;65726.75;;;5.34;100.00
37132;BME280;23035;50.032;21.978;2023-02-18T23:44:55;65758.59;;;5.60;100.00
37132;BME280;23035;50.032;21.978;2023-02-18T23:50:00;65750.59;;;5.52;100.00
37132;BME280;23035;50.032;21.978;2023-02-18T23:55:06;65746.84;;;5.48;100.00
